createdAt,value
2018-09-14T00:00:28.591Z,99824.40
2018-09-14T00:02:58.088Z,99820.60
2018-09-14T00:05:27.627Z,99813.53
2018-09-14T00:07:57.130Z,99811.63
2018-09-14T00:10:26.756Z,99805.61
2018-09-14T00:12:56.359Z,99800.68
2018-09-14T00:15:25.885Z,99791.34
2018-09-14T00:17:55.359Z,99791.91
2018-09-14T00:20:24.972Z,99795.50
2018-09-14T00:22:54.513Z,99796.03
2018-09-14T00:25:24.103Z,99792.52
2018-09-14T00:27:53.587Z,99795.87
2018-09-14T00:30:23.184Z,99793.59
2018-09-14T00:32:52.670Z,99791.53
2018-09-14T00:35:22.250Z,99789.23
2018-09-14T00:37:51.755Z,99790.00
2018-09-14T00:40:21.278Z,99779.13
2018-09-14T00:42:50.836Z,99782.09
2018-09-14T00:45:20.343Z,99787.37
2018-09-14T00:47:49.879Z,99784.73
2018-09-14T00:50:19.430Z,99780.86
2018-09-14T00:52:49.035Z,99786.28
2018-09-14T00:55:18.523Z,99782.75
2018-09-14T00:57:48.042Z,99776.70
2018-09-14T01:00:17.629Z,99775.93
2018-09-14T01:02:47.211Z,99775.41
2018-09-14T01:05:16.808Z,99774.03
2018-09-14T01:07:46.414Z,99780.05
2018-09-14T01:10:15.943Z,99770.44
2018-09-14T01:12:45.427Z,99775.19
2018-09-14T01:15:14.950Z,99770.30
2018-09-14T01:17:44.498Z,99772.11
2018-09-14T01:20:14.070Z,99765.67
2018-09-14T01:22:43.577Z,99767.55
2018-09-14T01:25:13.178Z,99767.96
2018-09-14T01:27:42.675Z,99775.23
2018-09-14T01:30:12.245Z,99772.86
2018-09-14T01:32:41.735Z,99775.07
2018-09-14T01:35:16.403Z,99768.20
2018-09-14T01:37:45.899Z,99769.64
2018-09-14T01:40:15.427Z,99770.45
2018-09-14T01:42:44.911Z,99773.30
2018-09-14T01:45:14.483Z,99776.91
2018-09-14T01:47:44.074Z,99768.60
2018-09-14T01:50:13.675Z,99656.22
2018-09-14T01:52:43.216Z,99768.66
2018-09-14T01:55:12.735Z,99766.77
2018-09-14T01:57:42.198Z,99766.22
2018-09-14T02:00:11.799Z,99759.66
2018-09-14T02:02:41.335Z,99751.76
2018-09-14T02:05:10.871Z,99755.41
2018-09-14T02:07:40.418Z,99740.45
2018-09-14T02:10:10.044Z,99747.92
2018-09-14T02:12:39.571Z,99749.83
2018-09-14T02:15:09.148Z,99751.48
2018-09-14T02:17:38.742Z,99753.92
2018-09-14T02:20:08.308Z,99753.89
2018-09-14T02:22:37.833Z,99754.47
2018-09-14T02:25:07.428Z,99753.64
2018-09-14T02:27:36.974Z,99755.29
2018-09-14T02:30:06.803Z,99765.14
2018-09-14T02:32:36.573Z,99761.11
2018-09-14T02:35:06.111Z,99764.08
2018-09-14T02:37:35.680Z,99760.80
2018-09-14T02:40:05.234Z,99763.80
2018-09-14T02:42:34.786Z,99763.00
2018-09-14T02:45:04.366Z,99761.38
2018-09-14T02:47:33.892Z,99750.18
2018-09-14T02:50:03.431Z,99752.17
2018-09-14T02:52:33.019Z,99742.25
2018-09-14T02:55:02.662Z,99743.92
2018-09-14T02:57:32.139Z,99744.53
2018-09-14T03:00:01.685Z,99745.58
2018-09-14T03:02:31.245Z,99741.16
2018-09-14T03:05:00.768Z,99738.14
2018-09-14T03:07:30.267Z,99738.09
2018-09-14T03:09:59.800Z,99742.20
2018-09-14T03:12:29.292Z,99746.83
2018-09-14T03:14:58.856Z,99757.75
2018-09-14T03:17:28.359Z,99748.45
2018-09-14T03:19:57.883Z,99755.83
2018-09-14T03:22:27.396Z,99760.50
2018-09-14T03:24:57.004Z,99757.20
2018-09-14T03:27:26.546Z,99750.36
2018-09-14T03:29:56.066Z,99758.34
2018-09-14T03:32:25.623Z,99755.54
2018-09-14T03:34:55.198Z,99757.20
2018-09-14T03:37:24.743Z,99754.43
2018-09-14T03:39:54.224Z,99755.55
2018-09-14T03:42:23.956Z,99752.80
2018-09-14T03:44:53.484Z,99758.57
2018-09-14T03:47:23.077Z,99757.17
2018-09-14T03:49:52.637Z,99760.73
2018-09-14T03:52:22.114Z,99759.10
2018-09-14T03:54:51.624Z,99758.01
2018-09-14T03:57:21.232Z,99761.03
2018-09-14T03:59:50.717Z,99767.89
2018-09-14T04:02:20.277Z,99769.08
2018-09-14T04:04:49.820Z,99775.58
2018-09-14T04:07:19.412Z,99783.50
2018-09-14T04:09:49.019Z,99788.72
2018-09-14T04:12:18.743Z,99792.00
2018-09-14T04:14:48.285Z,99800.20
2018-09-14T04:17:17.780Z,99798.06
2018-09-14T04:19:47.307Z,99799.73
2018-09-14T04:22:16.860Z,99806.10
2018-09-14T04:24:46.487Z,99812.16
2018-09-14T04:27:15.995Z,99810.85
2018-09-14T04:29:45.591Z,99809.22
2018-09-14T04:32:15.158Z,99810.84
2018-09-14T04:34:44.696Z,99814.13
2018-09-14T04:37:14.276Z,99811.34
2018-09-14T04:39:43.766Z,99797.04
2018-09-14T04:42:13.300Z,99804.38
2018-09-14T04:44:42.861Z,99809.32
2018-09-14T04:47:12.412Z,99806.53
2018-09-14T04:49:41.923Z,99807.83
2018-09-14T04:52:11.445Z,99808.31
2018-09-14T04:54:42.002Z,99806.57
2018-09-14T04:57:11.555Z,99806.21
2018-09-14T04:59:41.121Z,99812.67
2018-09-14T05:02:10.674Z,99810.58
2018-09-14T05:04:40.223Z,99815.50
2018-09-14T05:07:09.815Z,99719.62
2018-09-14T05:09:39.385Z,99799.70
2018-09-14T05:12:08.939Z,99799.41
2018-09-14T05:14:38.473Z,99804.27
2018-09-14T05:17:07.971Z,99795.46
2018-09-14T05:19:37.570Z,99793.77
2018-09-14T05:22:07.786Z,99793.50
2018-09-14T05:24:37.488Z,99791.33
2018-09-14T05:27:07.033Z,99792.05
2018-09-14T05:29:36.759Z,99795.83
2018-09-14T05:32:06.524Z,99788.45
2018-09-14T05:34:38.046Z,99793.84
2018-09-14T05:37:08.059Z,99783.05
2018-09-14T05:39:37.780Z,99786.71
2018-09-14T05:42:07.376Z,99783.34
2018-09-14T05:44:36.889Z,99781.86
2018-09-14T05:47:06.891Z,99782.53
2018-09-14T05:49:36.566Z,99776.00
2018-09-14T05:52:06.147Z,99782.55
2018-09-14T05:54:35.705Z,99778.59
2018-09-14T05:57:05.347Z,99772.25
2018-09-14T05:59:34.885Z,99774.66
2018-09-14T06:02:04.508Z,99780.33
2018-09-14T06:04:34.044Z,99781.00
2018-09-14T06:07:03.654Z,99782.09
2018-09-14T06:09:33.361Z,99777.37
2018-09-14T06:12:03.011Z,99780.33
2018-09-14T06:14:33.324Z,99784.73
2018-09-14T06:17:03.002Z,99781.11
2018-09-14T06:19:32.525Z,99696.83
2018-09-14T06:22:02.247Z,99780.84
2018-09-14T06:24:31.831Z,99790.63
2018-09-14T06:27:01.375Z,99791.78
2018-09-14T06:29:30.946Z,99802.11
2018-09-14T06:32:01.588Z,99792.73
2018-09-14T06:34:31.177Z,99804.73
2018-09-14T06:37:00.702Z,99801.05
2018-09-14T06:39:30.271Z,99802.91
2018-09-14T06:41:59.878Z,99803.17
2018-09-14T06:44:29.364Z,99801.25
2018-09-14T06:46:58.915Z,99798.73
2018-09-14T06:49:28.515Z,99807.89
2018-09-14T06:51:58.145Z,99799.14
2018-09-14T06:54:27.908Z,99800.78
2018-09-14T06:56:57.452Z,99800.09
2018-09-14T06:59:27.033Z,99808.52
2018-09-14T07:01:56.590Z,99807.65
2018-09-14T07:04:26.143Z,99810.09
2018-09-14T07:06:55.723Z,99806.42
2018-09-14T07:09:25.332Z,99800.05
2018-09-14T07:11:54.935Z,99804.16
2018-09-14T07:14:24.430Z,99809.87
2018-09-14T07:16:54.014Z,99806.76
2018-09-14T07:19:23.572Z,99815.32
2018-09-14T07:21:53.182Z,99808.34
2018-09-14T07:24:23.734Z,99814.89
2018-09-14T07:26:53.273Z,99732.85
2018-09-14T07:29:22.812Z,99811.98
2018-09-14T07:31:52.405Z,99810.99
2018-09-14T07:34:22.067Z,99808.48
2018-09-14T07:36:51.656Z,99811.68
2018-09-14T07:39:21.206Z,99804.50
2018-09-14T07:41:50.763Z,99802.44
2018-09-14T07:44:20.353Z,99800.40
2018-09-14T07:46:49.992Z,99801.93
2018-09-14T07:49:19.562Z,99801.77
2018-09-14T07:51:49.213Z,99797.36
2018-09-14T07:54:18.798Z,99800.47
2018-09-14T07:56:48.479Z,99800.80
2018-09-14T07:59:18.045Z,99802.53
2018-09-14T08:01:48.656Z,99800.33
2018-09-14T08:04:18.194Z,99794.34
2018-09-14T08:06:47.767Z,99797.73
2018-09-14T08:09:17.367Z,99802.13
2018-09-14T08:11:47.092Z,99799.20
2018-09-14T08:14:16.636Z,99800.83
2018-09-14T08:16:46.228Z,99795.05
2018-09-14T08:19:15.775Z,99794.92
2018-09-14T08:21:45.370Z,99794.12
2018-09-14T08:24:15.217Z,99797.39
2018-09-14T08:26:44.796Z,99792.77
2018-09-14T08:29:14.321Z,99791.50
2018-09-14T08:31:43.883Z,99789.05
2018-09-14T08:34:13.400Z,99788.60
2018-09-14T08:36:42.975Z,99789.10
2018-09-14T08:39:13.212Z,99795.13
2018-09-14T08:41:42.767Z,99786.53
2018-09-14T08:44:12.416Z,99715.33
2018-09-14T08:46:42.033Z,99791.28
2018-09-14T08:49:11.588Z,99792.30
2018-09-14T08:51:41.210Z,99795.31
2018-09-14T08:54:10.764Z,99789.73
2018-09-14T08:56:40.365Z,99788.70
2018-09-14T08:59:10.048Z,99794.62
2018-09-14T09:01:39.705Z,99791.62
2018-09-14T09:04:09.443Z,99792.00
2018-09-14T09:06:39.016Z,99794.88
2018-09-14T09:09:11.043Z,99796.50
2018-09-14T09:11:40.733Z,99796.06
2018-09-14T09:14:10.265Z,99797.52
2018-09-14T09:16:40.464Z,99799.42
2018-09-14T09:19:10.270Z,99793.13
2018-09-14T09:21:39.793Z,99791.66
2018-09-14T09:24:09.374Z,99797.28
2018-09-14T09:26:38.908Z,99794.97
2018-09-14T09:29:08.485Z,99799.61
2018-09-14T09:31:38.101Z,99798.88
2018-09-14T09:34:07.724Z,99797.91
2018-09-14T09:36:37.314Z,99786.27
2018-09-14T09:39:10.767Z,99792.33
2018-09-14T09:41:41.060Z,99786.75
2018-09-14T09:44:10.803Z,99782.91
2018-09-14T09:46:40.422Z,99782.75
2018-09-14T09:49:10.080Z,99785.36
2018-09-14T09:51:39.633Z,99780.80
2018-09-14T09:54:09.264Z,99779.19
2018-09-14T09:56:38.937Z,99734.13
2018-09-14T09:59:08.086Z,99775.67
2018-09-14T10:01:41.762Z,99771.76
2018-09-14T10:04:16.329Z,99769.84
2018-09-14T10:06:45.991Z,99771.13
2018-09-14T10:09:15.610Z,99759.26
2018-09-14T10:11:45.250Z,99752.19
2018-09-14T10:14:14.944Z,99753.33
2018-09-14T10:16:44.436Z,99747.70
2018-09-14T10:19:13.944Z,99754.56
2018-09-14T10:21:43.611Z,99744.08
2018-09-14T10:24:13.240Z,99748.48
2018-09-14T10:26:42.869Z,99741.51
2018-09-14T10:29:12.429Z,99738.88
2018-09-14T10:31:41.982Z,99735.70
2018-09-14T10:34:11.542Z,99736.63
2018-09-14T10:36:41.104Z,99735.55
2018-09-14T10:39:11.603Z,99730.24
2018-09-14T10:41:41.151Z,99728.50
2018-09-14T10:44:10.651Z,99713.66
2018-09-14T10:46:40.243Z,99726.58
2018-09-14T10:49:09.786Z,99717.50
2018-09-14T10:51:39.465Z,99712.28
2018-09-14T10:54:09.085Z,99715.33
2018-09-14T10:56:39.124Z,99715.33
2018-09-14T10:59:08.759Z,99718.52
2018-09-14T11:01:38.320Z,99713.77
2018-09-14T11:04:07.847Z,99712.61
2018-09-14T11:06:37.493Z,99710.78
2018-09-14T11:09:09.991Z,99679.44
2018-09-14T11:11:39.595Z,99706.41
2018-09-14T11:14:09.579Z,99700.48
2018-09-14T11:16:39.059Z,99699.11
2018-09-14T11:19:08.705Z,99698.87
2018-09-14T11:21:38.304Z,99695.80
2018-09-14T11:24:07.869Z,99692.74
2018-09-14T11:26:37.413Z,99690.30
2018-09-14T11:29:06.934Z,99694.14
2018-09-14T11:31:36.591Z,99691.84
2018-09-14T11:34:06.240Z,99689.86
2018-09-14T11:36:35.878Z,99686.17
2018-09-14T11:39:08.224Z,99693.34
2018-09-14T11:41:37.718Z,99686.98
2018-09-14T11:44:07.428Z,99689.11
2018-09-14T11:46:36.980Z,99689.66
2018-09-14T11:49:06.633Z,99686.92
2018-09-14T11:51:36.308Z,99686.72
2018-09-14T11:54:07.633Z,99688.16
2018-09-14T11:56:37.754Z,99680.69
2018-09-14T11:59:07.435Z,99683.23
2018-09-14T12:01:37.015Z,99680.64
2018-09-14T12:04:06.593Z,99687.80
2018-09-14T12:06:36.163Z,99687.16
2018-09-14T12:09:08.513Z,99690.01
2018-09-14T12:11:38.368Z,99684.78
2018-09-14T12:14:08.088Z,99682.48
2018-09-14T12:16:37.647Z,99685.69
2018-09-14T12:19:07.430Z,99603.58
2018-09-14T12:21:36.999Z,99676.64
2018-09-14T12:24:06.591Z,99674.63
2018-09-14T12:26:36.216Z,99679.45
2018-09-14T12:29:05.793Z,99671.45
2018-09-14T12:31:35.398Z,99672.19
2018-09-14T12:34:05.681Z,99664.33
2018-09-14T12:36:35.196Z,99667.77
2018-09-14T12:39:05.509Z,99669.16
2018-09-14T12:41:35.083Z,99665.64
2018-09-14T12:44:04.744Z,99670.05
2018-09-14T12:46:34.267Z,99669.59
2018-09-14T12:49:03.882Z,99658.78
2018-09-14T12:51:33.399Z,99661.61
2018-09-14T12:54:03.218Z,99647.84
2018-09-14T12:56:34.122Z,99557.17
2018-09-14T12:59:05.264Z,99660.92
2018-09-14T13:01:35.969Z,99656.98
2018-09-14T13:04:06.143Z,99659.98
2018-09-14T13:06:35.997Z,99661.52
2018-09-14T13:09:10.101Z,99659.27
2018-09-14T13:11:40.230Z,99655.25
2018-09-14T13:14:10.518Z,99660.67
2018-09-14T13:16:40.394Z,99658.73
2018-09-14T13:19:09.927Z,99648.69
2018-09-14T13:21:39.544Z,99656.81
2018-09-14T13:24:09.189Z,99653.81
2018-09-14T13:26:38.755Z,99573.72
2018-09-14T13:29:08.415Z,99646.48
2018-09-14T13:31:37.972Z,99652.34
2018-09-14T13:34:07.579Z,99654.53
2018-09-14T13:36:37.110Z,99638.75
2018-09-14T13:39:08.292Z,99650.81
2018-09-14T13:41:37.882Z,99654.55
2018-09-14T13:44:07.631Z,99656.31
2018-09-14T13:46:37.472Z,99653.11
2018-09-14T13:49:07.099Z,99656.41
2018-09-14T13:51:37.600Z,99648.25
2018-09-14T13:54:07.942Z,99647.49
2018-09-14T13:56:37.595Z,99647.23
2018-09-14T13:59:07.216Z,99647.16
2018-09-14T14:01:37.046Z,99647.09
2018-09-14T14:04:06.828Z,99642.13
2018-09-14T14:06:36.374Z,99646.45
2018-09-14T14:09:09.047Z,99646.53
2018-09-14T14:11:38.621Z,99643.81
2018-09-14T14:14:08.531Z,99640.81
2018-09-14T14:16:38.092Z,99642.26
2018-09-14T14:19:07.834Z,99634.63
2018-09-14T14:21:37.529Z,99638.14
2018-09-14T14:24:07.265Z,99632.12
2018-09-14T14:26:36.840Z,99638.22
2018-09-14T14:29:06.591Z,99630.28
2018-09-14T14:31:36.197Z,99641.77
2018-09-14T14:34:05.797Z,99646.70
2018-09-14T14:36:35.400Z,99639.93
2018-09-14T14:39:06.193Z,99644.75
2018-09-14T14:41:35.712Z,99643.28
2018-09-14T14:44:05.299Z,99654.21
2018-09-14T14:46:34.943Z,99656.33
2018-09-14T14:49:04.630Z,99657.28
2018-09-14T14:51:34.172Z,99648.52
2018-09-14T14:54:03.765Z,99655.17
2018-09-14T14:56:33.335Z,99645.58
2018-09-14T14:59:02.926Z,99652.50
2018-09-14T15:01:32.550Z,99659.17
2018-09-14T15:04:02.139Z,99652.20
2018-09-14T15:06:31.776Z,99656.92
2018-09-14T15:09:01.312Z,99657.17
2018-09-14T15:11:30.802Z,99657.83
2018-09-14T15:14:00.400Z,99654.34
2018-09-14T15:16:29.899Z,99652.09
2018-09-14T15:18:59.495Z,99651.59
2018-09-14T15:21:29.064Z,99652.59
2018-09-14T15:23:58.594Z,99659.97
2018-09-14T15:26:28.132Z,99657.61
2018-09-14T15:28:57.672Z,99658.66
2018-09-14T15:31:27.211Z,99659.11
2018-09-14T15:33:56.702Z,99662.80
2018-09-14T15:36:26.242Z,99665.97
2018-09-14T15:38:55.757Z,99666.13
2018-09-14T15:41:25.330Z,99666.06
2018-09-14T15:43:54.918Z,99669.70
2018-09-14T15:46:24.458Z,99677.43
2018-09-14T15:48:54.032Z,99678.05
2018-09-14T15:51:23.576Z,99677.95
2018-09-14T15:53:53.161Z,99678.92
2018-09-14T15:56:22.681Z,99685.35
2018-09-14T15:58:52.235Z,99685.38
2018-09-14T16:01:21.768Z,99692.02
2018-09-14T16:03:51.265Z,99691.97
2018-09-14T16:06:20.822Z,99690.69
2018-09-14T16:08:50.384Z,99695.59
2018-09-14T16:11:20.044Z,99697.48
2018-09-14T16:13:49.619Z,99691.45
2018-09-14T16:16:19.569Z,99694.68
2018-09-14T16:18:49.232Z,99700.25
2018-09-14T16:21:18.761Z,99693.42
2018-09-14T16:23:48.350Z,99696.91
2018-09-14T16:26:18.044Z,99696.31
2018-09-14T16:28:47.583Z,99701.77
2018-09-14T16:31:17.116Z,99703.28
2018-09-14T16:33:46.652Z,99700.33
2018-09-14T16:36:16.205Z,99703.67
2018-09-14T16:38:45.714Z,99709.90
2018-09-14T16:41:15.193Z,99712.31
2018-09-14T16:43:44.742Z,99720.40
2018-09-14T16:46:14.231Z,99718.19
2018-09-14T16:48:43.767Z,99721.30
2018-09-14T16:51:13.312Z,99721.86
2018-09-14T16:53:42.868Z,99720.63
2018-09-14T16:56:12.404Z,99728.31
2018-09-14T16:58:41.951Z,99728.62
2018-09-14T17:01:11.447Z,99728.55
2018-09-14T17:03:40.985Z,99732.30
2018-09-14T17:06:10.519Z,99730.97
2018-09-14T17:08:40.012Z,99734.61
2018-09-14T17:11:09.522Z,99738.08
2018-09-14T17:13:39.066Z,99741.76
2018-09-14T17:16:08.647Z,99742.27
2018-09-14T17:18:38.181Z,99750.76
2018-09-14T17:21:07.771Z,99750.70
2018-09-14T17:23:37.259Z,99759.55
2018-09-14T17:26:06.804Z,99758.92
2018-09-14T17:28:36.352Z,99766.59
2018-09-14T17:31:05.883Z,99763.80
2018-09-14T17:33:35.419Z,99772.86
2018-09-14T17:36:04.948Z,99770.44
2018-09-14T17:38:34.586Z,99769.80
2018-09-14T17:41:04.125Z,99776.17
2018-09-14T17:43:33.757Z,99778.52
2018-09-14T17:46:03.259Z,99780.99
2018-09-14T17:48:32.943Z,99788.66
2018-09-14T17:51:02.506Z,99790.77
2018-09-14T17:53:32.047Z,99789.25
2018-09-14T17:56:01.540Z,99800.16
2018-09-14T17:58:31.068Z,99798.70
2018-09-14T18:01:00.615Z,99805.86
2018-09-14T18:03:30.164Z,99811.08
2018-09-14T18:05:59.675Z,99811.48
2018-09-14T18:08:29.279Z,99812.15
2018-09-14T18:10:58.779Z,99812.69
2018-09-14T18:13:28.323Z,99816.61
2018-09-14T18:15:57.974Z,99816.75
2018-09-14T18:18:27.496Z,99812.97
2018-09-14T18:20:57.052Z,99814.27
2018-09-14T18:23:26.794Z,99817.78
2018-09-14T18:25:56.282Z,99814.73
2018-09-14T18:28:25.843Z,99818.29
2018-09-14T18:30:55.895Z,99820.46
2018-09-14T18:33:25.457Z,99818.73
2018-09-14T18:35:55.044Z,99820.64
2018-09-14T18:38:24.515Z,99819.42
2018-09-14T18:40:54.138Z,99820.95
2018-09-14T18:43:23.634Z,99818.59
2018-09-14T18:45:53.191Z,99813.72
2018-09-14T18:48:22.708Z,99818.48
2018-09-14T18:50:52.892Z,99820.59
2018-09-14T18:53:22.405Z,99821.86
2018-09-14T18:55:51.992Z,99824.50
2018-09-14T18:58:21.558Z,99828.61
2018-09-14T19:00:51.434Z,99833.44
2018-09-14T19:05:49.256Z,99831.43
2018-09-14T19:08:18.772Z,99838.48
2018-09-14T19:10:48.284Z,99839.90
2018-09-14T19:13:17.886Z,99841.80
2018-09-14T19:15:47.422Z,99843.48
2018-09-14T19:18:16.947Z,99838.97
2018-09-14T19:20:46.494Z,99840.70
2018-09-14T19:23:15.979Z,99840.26
2018-09-14T19:25:45.511Z,99846.09
2018-09-14T19:28:15.023Z,99844.06
2018-09-14T19:30:44.614Z,99844.34
2018-09-14T19:33:14.139Z,99846.83
2018-09-14T19:35:43.628Z,99855.98
2018-09-14T19:38:13.164Z,99858.23
2018-09-14T19:40:42.689Z,99855.91
2018-09-14T19:43:12.323Z,99852.84
2018-09-14T19:45:41.822Z,99857.05
2018-09-14T19:48:11.416Z,99861.56
2018-09-14T19:50:40.911Z,99861.86
2018-09-14T19:53:10.466Z,99866.67
2018-09-14T19:55:39.991Z,99870.36
2018-09-14T19:58:09.563Z,99865.45
2018-09-14T20:00:39.088Z,99868.84
2018-09-14T20:03:08.648Z,99880.38
2018-09-14T20:05:38.135Z,99872.77
2018-09-14T20:08:07.711Z,99870.94
2018-09-14T20:10:37.270Z,99870.73
2018-09-14T20:13:06.754Z,99868.33
2018-09-14T20:15:36.278Z,99872.08
2018-09-14T20:18:05.784Z,99878.79
2018-09-14T20:20:35.403Z,99872.70
2018-09-14T20:23:04.943Z,99879.03
2018-09-14T20:25:34.470Z,99878.55
2018-09-14T20:28:04.023Z,99877.66
2018-09-14T20:30:33.605Z,99871.33
2018-09-14T20:33:03.112Z,99877.89
2018-09-14T20:35:32.647Z,99874.33
2018-09-14T20:38:02.179Z,99874.53
2018-09-14T20:40:31.672Z,99881.33
2018-09-14T20:43:01.208Z,99773.59
2018-09-14T20:45:30.750Z,99878.41
2018-09-14T20:48:00.300Z,99874.08
2018-09-14T20:50:29.807Z,99878.22
2018-09-14T20:52:59.335Z,99880.35
2018-09-14T20:55:28.902Z,99878.10
2018-09-14T20:57:58.591Z,99875.64
2018-09-14T21:00:28.148Z,99877.66
2018-09-14T21:02:57.702Z,99879.78
2018-09-14T21:05:27.253Z,99875.45
2018-09-14T21:07:56.795Z,99879.33
2018-09-14T21:10:26.324Z,99879.27
2018-09-14T21:12:55.815Z,99874.70
2018-09-14T21:15:25.397Z,99880.47
2018-09-14T21:17:54.944Z,99883.49
2018-09-14T21:20:24.433Z,99878.84
2018-09-14T21:22:53.964Z,99878.12
2018-09-14T21:25:23.566Z,99883.53
2018-09-14T21:27:53.196Z,99881.80
2018-09-14T21:30:22.743Z,99877.09
2018-09-14T21:32:52.281Z,99879.26
2018-09-14T21:35:21.791Z,99885.94
2018-09-14T21:37:51.315Z,99887.59
2018-09-14T21:40:20.852Z,99898.11
2018-09-14T21:42:50.343Z,99890.19
2018-09-14T21:45:19.847Z,99892.38
2018-09-14T21:47:49.394Z,99888.53
2018-09-14T21:50:18.894Z,99891.70
2018-09-14T21:52:48.414Z,99889.02
2018-09-14T21:55:18.011Z,99888.67
2018-09-14T21:57:47.639Z,99895.56
2018-09-14T22:00:22.219Z,99892.57
2018-09-14T22:02:51.736Z,99895.67
2018-09-14T22:05:21.266Z,99887.99
2018-09-14T22:07:50.794Z,99891.02
2018-09-14T22:10:20.300Z,99892.91
2018-09-14T22:12:49.831Z,99894.88
2018-09-14T22:15:19.371Z,99895.69
2018-09-14T22:17:48.855Z,99898.79
2018-09-14T22:20:18.459Z,99796.15
2018-09-14T22:22:48.022Z,99908.83
2018-09-14T22:25:17.507Z,99913.52
2018-09-14T22:27:47.071Z,99913.83
2018-09-14T22:30:16.702Z,99916.45
2018-09-14T22:32:46.249Z,99918.64
2018-09-14T22:35:15.835Z,99920.06
2018-09-14T22:37:45.335Z,99919.55
2018-09-14T22:40:14.866Z,99920.92
2018-09-14T22:42:44.370Z,99921.50
2018-09-14T22:45:13.914Z,99924.11
2018-09-14T22:47:43.455Z,99931.91
2018-09-14T22:50:13.010Z,99931.48
2018-09-14T22:52:42.544Z,99934.37
2018-09-14T22:55:12.033Z,99934.75
2018-09-14T22:57:41.561Z,99932.69
2018-09-14T23:00:15.432Z,99925.37
2018-09-14T23:02:45.059Z,99931.44
2018-09-14T23:05:14.551Z,99934.96
2018-09-14T23:07:44.079Z,99938.05
2018-09-14T23:10:13.592Z,99933.59
2018-09-14T23:12:43.138Z,99935.37
2018-09-14T23:15:12.617Z,99939.18
2018-09-14T23:17:42.134Z,99940.31
2018-09-14T23:20:11.659Z,99943.87
2018-09-14T23:22:41.192Z,99941.97
2018-09-14T23:25:10.684Z,99941.16
2018-09-14T23:27:40.211Z,99942.26
2018-09-14T23:30:09.719Z,99942.91
2018-09-14T23:32:39.256Z,99934.84
2018-09-14T23:35:08.839Z,99935.27
2018-09-14T23:37:38.354Z,99932.63
2018-09-14T23:40:07.878Z,99925.54
2018-09-14T23:42:37.343Z,99923.88
2018-09-14T23:45:06.952Z,99922.05
2018-09-14T23:47:36.425Z,99924.27
2018-09-14T23:50:06.016Z,99927.05
2018-09-14T23:52:35.508Z,99927.02
2018-09-14T23:55:05.205Z,99923.73
2018-09-14T23:57:34.715Z,99924.08
